Terminal Aerodrome Forecast
Issued by NWS

Home | Current Version | Previous Version | Graphics & Text | Print | Product List | Glossary On
Versions: 1 2 3 4 5 6 7 8 9 10 11 12 13 14 15 16
000
FTUS43 KICT 071140 AAB
TAFSLN
TAF AMD
KSLN 071140Z 0712/0812 04007KT P6SM SCT025 OVC080
      TEMPO 0714/0718 5SM -SN BR OVC015
     FM071800 03012KT P6SM OVC025
     FM080000 34010KT P6SM OVC035
     FM080300 33010KT P6SM SCT150=

USA.gov is the U.S. government's official web portal to all federal, state and local government web resources and services.